createdAt,value
2022-11-04T00:01:17.265Z,1.03
2022-11-04T00:04:21.316Z,1.65
2022-11-04T00:07:42.317Z,1.30
2022-11-04T00:11:14.266Z,0.97
2022-11-04T00:14:17.834Z,1.23
2022-11-04T00:20:39.811Z,0.90
2022-11-04T00:24:03.710Z,1.00
2022-11-04T00:27:24.084Z,0.68
2022-11-04T00:30:26.754Z,0.70
2022-11-04T00:33:28.472Z,0.80
2022-11-04T00:36:31.148Z,0.80
2022-11-04T00:39:35.457Z,0.83
2022-11-04T00:42:38.296Z,0.90
2022-11-04T00:45:42.145Z,1.00
2022-11-04T00:48:44.715Z,0.90
2022-11-04T00:51:47.359Z,0.83
2022-11-04T00:54:51.308Z,0.77
2022-11-04T00:57:53.900Z,0.83
2022-11-04T01:00:56.683Z,1.00
2022-11-04T01:03:59.327Z,0.60
2022-11-04T01:07:02.558Z,0.90
2022-11-04T01:10:07.610Z,0.55
2022-11-04T01:13:10.561Z,0.70
2022-11-04T01:16:13.972Z,1.08
2022-11-04T01:19:16.924Z,0.80
2022-11-04T01:22:19.558Z,1.10
2022-11-04T01:25:23.536Z,0.90
2022-11-04T01:28:26.192Z,0.93
2022-11-04T01:31:31.299Z,0.70
2022-11-04T01:34:35.210Z,0.83
2022-11-04T01:37:40.711Z,0.80
2022-11-04T01:40:44.663Z,0.90
2022-11-04T01:43:50.816Z,0.93
2022-11-04T01:46:55.226Z,0.80
2022-11-04T01:50:01.462Z,0.90
2022-11-04T01:53:08.388Z,1.13
2022-11-04T01:56:14.428Z,0.60
2022-11-04T01:59:20.541Z,0.80
2022-11-04T02:02:23.278Z,0.80
2022-11-04T02:05:25.929Z,0.80
2022-11-04T02:08:28.557Z,1.10
2022-11-04T02:11:50.344Z,0.90
2022-11-04T02:14:54.132Z,1.03
2022-11-04T02:18:11.865Z,0.70
2022-11-04T02:21:39.646Z,0.83
2022-11-04T02:24:58.972Z,0.80
2022-11-04T02:28:22.328Z,0.80
2022-11-04T02:31:33.642Z,0.50
2022-11-04T02:34:42.985Z,0.53
2022-11-04T02:41:02.064Z,0.80
2022-11-04T02:44:14.393Z,0.63
2022-11-04T02:47:20.911Z,0.93
2022-11-04T02:50:27.004Z,0.70
2022-11-04T02:53:34.777Z,0.57
2022-11-04T02:56:40.295Z,0.53
2022-11-04T02:59:47.413Z,0.57
2022-11-04T03:02:54.290Z,0.50
2022-11-04T03:05:59.259Z,0.67
2022-11-04T03:09:02.424Z,0.90
2022-11-04T03:12:07.882Z,0.80
2022-11-04T03:15:15.088Z,0.60
2022-11-04T03:18:23.435Z,0.60
2022-11-04T03:21:27.291Z,0.70
2022-11-04T03:24:30.533Z,0.57
2022-11-04T03:27:36.641Z,0.40
2022-11-04T03:30:41.117Z,0.57
2022-11-04T03:33:48.878Z,0.50
2022-11-04T03:36:51.631Z,0.60
2022-11-04T03:39:54.261Z,0.68
2022-11-04T03:42:59.418Z,0.70
2022-11-04T03:46:02.061Z,0.40
2022-11-04T03:49:06.747Z,0.50
2022-11-04T03:52:09.472Z,0.50
2022-11-04T03:55:13.206Z,0.70
2022-11-04T03:58:24.155Z,0.70
2022-11-04T04:01:33.437Z,0.60
2022-11-04T04:04:39.703Z,0.60
2022-11-04T04:07:45.857Z,0.60
2022-11-04T04:10:55.946Z,0.70
2022-11-04T04:14:03.057Z,0.80
2022-11-04T04:17:07.565Z,0.67
2022-11-04T04:20:14.560Z,0.70
2022-11-04T04:23:36.227Z,0.70
2022-11-04T04:26:57.830Z,0.60
2022-11-04T04:30:02.136Z,0.87
2022-11-04T04:33:08.185Z,0.67
2022-11-04T04:36:12.211Z,0.50
2022-11-04T04:39:36.664Z,0.70
2022-11-04T04:42:56.914Z,0.60
2022-11-04T04:45:59.575Z,0.97
2022-11-04T04:49:06.671Z,0.87
2022-11-04T04:52:10.620Z,0.70
2022-11-04T04:55:14.442Z,0.80
2022-11-04T04:58:17.021Z,0.60
2022-11-04T05:01:19.790Z,0.83
2022-11-04T05:04:22.471Z,0.85
2022-11-04T05:07:26.904Z,0.40
2022-11-04T05:10:29.476Z,0.70
2022-11-04T05:13:32.060Z,1.17
2022-11-04T05:16:40.452Z,0.63
2022-11-04T05:19:43.460Z,0.87
2022-11-04T05:22:47.356Z,0.60
2022-11-04T05:25:49.994Z,0.70
2022-11-04T05:28:52.514Z,0.83
2022-11-04T05:31:55.130Z,0.50
2022-11-04T05:34:57.820Z,0.60
2022-11-04T05:38:02.159Z,1.77
2022-11-04T05:41:05.089Z,0.90
2022-11-04T05:44:09.528Z,0.88
2022-11-04T05:47:12.128Z,0.70
2022-11-04T05:50:14.687Z,0.80
2022-11-04T05:53:18.792Z,1.00
2022-11-04T05:56:21.618Z,1.00
2022-11-04T05:59:24.276Z,0.60
2022-11-04T06:02:27.105Z,1.00
2022-11-04T06:05:30.184Z,0.77
2022-11-04T06:08:34.157Z,0.73
2022-11-04T06:11:37.793Z,0.80
2022-11-04T06:17:42.791Z,0.60
2022-11-04T06:20:45.317Z,0.60
2022-11-04T06:23:50.154Z,1.00
2022-11-04T06:26:52.845Z,1.00
2022-11-04T06:29:55.505Z,1.00
2022-11-04T06:32:58.150Z,0.93
2022-11-04T06:36:01.221Z,1.00
2022-11-04T06:39:05.738Z,0.85
2022-11-04T06:42:08.339Z,0.73
2022-11-04T06:45:11.829Z,0.60
2022-11-04T06:48:14.573Z,0.60
2022-11-04T06:51:17.249Z,0.63
2022-11-04T06:54:21.348Z,0.50
2022-11-04T06:57:24.228Z,0.90
2022-11-04T07:00:26.907Z,1.13
2022-11-04T07:03:29.949Z,0.90
2022-11-04T07:06:32.668Z,1.20
2022-11-04T07:09:36.622Z,0.90
2022-11-04T07:12:39.442Z,0.70
2022-11-04T07:15:42.083Z,1.00
2022-11-04T07:18:45.137Z,1.10
2022-11-04T07:21:47.824Z,1.30
2022-11-04T07:24:51.916Z,0.87
2022-11-04T07:27:56.659Z,1.03
2022-11-04T07:31:02.948Z,1.10
2022-11-04T07:34:05.661Z,1.35
2022-11-04T07:37:08.180Z,0.97
2022-11-04T07:40:13.205Z,0.90
2022-11-04T07:43:16.368Z,1.13
2022-11-04T07:46:19.816Z,1.05
2022-11-04T07:49:22.402Z,1.30
2022-11-04T07:52:25.218Z,0.80
2022-11-04T07:55:29.175Z,1.15
2022-11-04T07:58:31.960Z,0.77
2022-11-04T08:01:34.647Z,0.60
2022-11-04T08:04:37.507Z,0.60
2022-11-04T08:07:40.325Z,0.65
2022-11-04T08:10:44.232Z,1.17
2022-11-04T08:13:47.849Z,0.87
2022-11-04T08:19:54.052Z,0.77
2022-11-04T08:22:56.711Z,0.93
2022-11-04T08:26:00.963Z,1.10
2022-11-04T08:29:08.001Z,1.17
2022-11-04T08:32:10.624Z,1.57
2022-11-04T08:35:13.193Z,0.90
2022-11-04T08:38:16.025Z,0.60
2022-11-04T08:41:21.617Z,0.73
2022-11-04T08:44:24.288Z,0.60
2022-11-04T08:47:27.483Z,1.15
2022-11-04T08:50:31.198Z,1.20
2022-11-04T08:56:39.722Z,1.77
2022-11-04T08:59:42.481Z,0.83
2022-11-04T09:02:45.299Z,0.65
2022-11-04T09:05:49.138Z,0.95
2022-11-04T09:08:52.320Z,0.50
2022-11-04T09:11:56.265Z,1.13
2022-11-04T09:14:58.963Z,1.00
2022-11-04T09:18:02.457Z,0.90
2022-11-04T09:24:08.915Z,0.98
2022-11-04T09:27:12.878Z,0.70
2022-11-04T09:30:15.899Z,0.90
2022-11-04T09:33:18.498Z,1.45
2022-11-04T09:36:21.181Z,1.00
2022-11-04T09:39:24.091Z,0.85
2022-11-04T09:42:39.252Z,0.70
2022-11-04T09:45:43.481Z,1.10
2022-11-04T09:48:48.769Z,1.50
2022-11-04T09:51:54.988Z,0.80
2022-11-04T09:55:02.446Z,0.80
2022-11-04T09:58:06.879Z,0.90
2022-11-04T10:01:18.710Z,0.50
2022-11-04T10:04:26.427Z,0.60
2022-11-04T10:07:42.558Z,0.90
2022-11-04T10:10:50.996Z,0.70
2022-11-04T10:14:09.045Z,0.83
2022-11-04T10:17:21.220Z,0.63
2022-11-04T10:20:43.600Z,0.70
2022-11-04T10:24:00.424Z,0.70
2022-11-04T10:27:05.928Z,0.60
2022-11-04T10:30:16.793Z,0.63
2022-11-04T10:33:25.408Z,1.10
2022-11-04T10:36:28.098Z,0.70
2022-11-04T10:39:33.244Z,0.88
2022-11-04T10:42:35.862Z,0.67
2022-11-04T10:45:44.856Z,1.35
2022-11-04T10:48:52.132Z,0.63
2022-11-04T10:51:55.365Z,0.97
2022-11-04T10:54:58.064Z,0.75
2022-11-04T10:58:01.013Z,1.00
2022-11-04T11:01:24.596Z,0.70
2022-11-04T11:04:32.498Z,1.08
2022-11-04T11:07:38.057Z,0.80
2022-11-04T11:10:52.253Z,0.70
2022-11-04T11:13:54.897Z,0.70
2022-11-04T11:17:21.294Z,0.95
2022-11-04T11:20:25.484Z,0.67
2022-11-04T11:23:46.753Z,0.80
2022-11-04T11:26:50.914Z,0.57
2022-11-04T11:29:56.269Z,0.97
2022-11-04T11:33:03.787Z,0.57
2022-11-04T11:36:12.138Z,0.80
2022-11-04T11:39:17.272Z,0.57
2022-11-04T11:42:21.105Z,0.60
2022-11-04T11:45:25.498Z,0.80
2022-11-04T11:48:31.064Z,0.80
2022-11-04T11:51:35.649Z,0.60
2022-11-04T11:54:39.130Z,1.20
2022-11-04T12:00:56.818Z,0.70
2022-11-04T12:11:00.296Z,0.73
2022-11-04T12:14:06.553Z,3.17
2022-11-04T12:17:18.806Z,0.70
2022-11-04T12:20:37.756Z,1.17
2022-11-04T12:23:46.161Z,0.60
2022-11-04T12:26:53.707Z,1.00
2022-11-04T12:30:04.902Z,0.60
2022-11-04T12:33:18.783Z,1.27
2022-11-04T12:36:43.600Z,0.90
2022-11-04T12:39:58.400Z,1.00
2022-11-04T12:43:10.627Z,1.20
2022-11-04T12:46:19.023Z,0.90
2022-11-04T12:49:55.129Z,0.80
2022-11-04T12:53:31.544Z,1.03
2022-11-04T12:56:38.418Z,0.60
2022-11-04T13:00:07.293Z,0.80
2022-11-04T13:03:14.954Z,0.90
2022-11-04T13:06:19.550Z,0.60
2022-11-04T13:09:35.160Z,0.60
2022-11-04T13:12:39.755Z,0.87
2022-11-04T13:15:47.841Z,1.03
2022-11-04T13:18:51.105Z,1.20
2022-11-04T13:21:54.303Z,0.52
2022-11-04T13:25:01.300Z,0.70
2022-11-04T13:28:04.354Z,0.90
2022-11-04T13:31:09.624Z,0.80
2022-11-04T13:34:23.208Z,1.00
2022-11-04T13:37:29.199Z,0.73
2022-11-04T13:40:43.714Z,0.73
2022-11-04T13:43:50.725Z,0.85
2022-11-04T13:46:55.253Z,0.97
2022-11-04T13:49:57.908Z,0.80
2022-11-04T13:53:01.069Z,1.00
2022-11-04T13:56:31.502Z,1.48
2022-11-04T13:59:28.910Z,0.63
2022-11-04T14:02:40.802Z,1.70
2022-11-04T14:05:56.901Z,1.30
2022-11-04T14:09:32.973Z,0.87
2022-11-04T14:12:37.094Z,0.83
2022-11-04T14:16:01.074Z,0.93
2022-11-04T14:19:58.295Z,0.77
2022-11-04T14:23:03.251Z,0.90
2022-11-04T14:26:07.536Z,1.67
2022-11-04T14:29:19.263Z,0.80
2022-11-04T14:32:26.146Z,0.90
2022-11-04T14:35:29.754Z,0.83
2022-11-04T14:41:59.107Z,1.33
2022-11-04T14:45:01.997Z,1.30
2022-11-04T14:48:15.832Z,1.38
2022-11-04T14:51:26.075Z,1.17
2022-11-04T14:54:32.363Z,1.50
2022-11-04T14:57:38.543Z,2.23
2022-11-04T15:00:52.717Z,2.20
2022-11-04T15:04:11.283Z,1.97
2022-11-04T15:07:26.505Z,1.90
2022-11-04T15:10:30.854Z,1.05
2022-11-04T15:13:38.199Z,1.10
2022-11-04T15:16:41.233Z,1.13
2022-11-04T15:19:44.065Z,1.25
2022-11-04T15:22:46.842Z,1.00
2022-11-04T15:25:51.229Z,1.05
2022-11-04T15:28:54.341Z,1.17
2022-11-04T15:31:59.575Z,1.30
2022-11-04T15:35:02.393Z,1.10
2022-11-04T15:38:05.080Z,1.33
2022-11-04T15:41:27.340Z,1.10
2022-11-04T15:44:31.118Z,1.10
2022-11-04T15:50:36.513Z,1.80
2022-11-04T15:53:49.532Z,1.02
2022-11-04T15:56:55.273Z,1.67
2022-11-04T16:00:00.490Z,1.30
2022-11-04T16:03:03.562Z,1.20
2022-11-04T16:06:08.341Z,2.22
2022-11-04T16:09:23.068Z,2.07
2022-11-04T16:12:30.537Z,1.40
2022-11-04T16:15:37.601Z,1.40
2022-11-04T16:18:41.186Z,1.30
2022-11-04T16:24:48.799Z,1.53
2022-11-04T16:27:52.799Z,1.27
2022-11-04T16:30:59.275Z,1.33
2022-11-04T16:34:02.207Z,1.73
2022-11-04T16:37:04.861Z,1.40
2022-11-04T16:40:09.106Z,1.63
2022-11-04T16:43:13.323Z,1.83
2022-11-04T16:46:16.081Z,2.47
2022-11-04T16:49:20.360Z,2.65
2022-11-04T16:52:25.509Z,2.40
2022-11-04T16:55:29.012Z,2.20
2022-11-04T16:58:33.651Z,1.83
2022-11-04T17:01:40.030Z,1.47
2022-11-04T17:04:44.090Z,2.03
2022-11-04T17:07:53.503Z,1.90
2022-11-04T17:10:57.082Z,5.43
2022-11-04T17:14:01.102Z,2.77
2022-11-04T17:17:04.777Z,1.80
2022-11-04T17:23:12.716Z,3.17
2022-11-04T17:26:15.798Z,3.07
2022-11-04T17:29:19.799Z,2.63
2022-11-04T17:32:22.466Z,3.83
2022-11-04T17:35:25.394Z,5.03
2022-11-04T17:38:28.011Z,4.50
2022-11-04T17:41:48.326Z,3.80
2022-11-04T17:44:52.233Z,3.07
2022-11-04T17:47:54.834Z,2.80
2022-11-04T17:50:57.502Z,4.23
2022-11-04T17:54:00.091Z,2.90
2022-11-04T17:57:03.552Z,4.97
2022-11-04T18:00:09.372Z,5.32
2022-11-04T18:03:12.266Z,3.83
2022-11-04T18:06:15.374Z,3.47
2022-11-04T18:09:19.150Z,2.72
2022-11-04T18:12:41.528Z,2.10
2022-11-04T18:15:45.632Z,1.50
2022-11-04T18:18:48.162Z,2.00
2022-11-04T18:21:51.176Z,2.20
2022-11-04T18:24:53.878Z,2.08
2022-11-04T18:27:56.693Z,3.13
2022-11-04T18:31:00.716Z,4.50
2022-11-04T18:34:05.526Z,3.30
2022-11-04T18:37:08.280Z,4.27
2022-11-04T18:40:12.114Z,3.20
2022-11-04T18:43:15.031Z,2.80
2022-11-04T18:46:19.623Z,2.95
2022-11-04T18:49:22.322Z,2.30
2022-11-04T18:52:25.074Z,2.92
2022-11-04T18:55:27.832Z,2.58
2022-11-04T18:58:33.043Z,3.80
2022-11-04T19:01:37.143Z,2.60
2022-11-04T19:04:39.848Z,2.53
2022-11-04T19:07:42.479Z,2.30
2022-11-04T19:11:00.244Z,3.07
2022-11-04T19:14:09.355Z,2.93
2022-11-04T19:17:13.714Z,3.60
2022-11-04T19:20:16.332Z,4.80
2022-11-04T19:23:18.975Z,3.60
2022-11-04T19:26:23.255Z,4.23
2022-11-04T19:29:26.018Z,9.63
2022-11-04T19:32:30.010Z,8.13
2022-11-04T19:35:32.607Z,8.40
2022-11-04T19:38:35.551Z,5.47
2022-11-04T19:41:57.125Z,4.68
2022-11-04T19:44:59.796Z,4.87
2022-11-04T19:48:03.981Z,3.10
2022-11-04T19:51:12.847Z,3.03
2022-11-04T19:54:15.514Z,2.63
2022-11-04T19:57:18.537Z,2.97
2022-11-04T20:00:23.835Z,3.55
2022-11-04T20:03:27.779Z,3.43
2022-11-04T20:06:32.195Z,2.80
2022-11-04T20:09:34.947Z,2.87
2022-11-04T20:12:55.405Z,2.30
2022-11-04T20:15:58.134Z,3.73
2022-11-04T20:19:04.154Z,2.15
2022-11-04T20:22:06.802Z,2.17
2022-11-04T20:25:10.084Z,1.70
2022-11-04T20:28:13.067Z,2.25
2022-11-04T20:31:18.820Z,2.60
2022-11-04T20:34:22.839Z,3.53
2022-11-04T20:37:26.095Z,3.30
2022-11-04T20:40:29.313Z,2.60
2022-11-04T20:43:33.658Z,3.15
2022-11-04T20:46:36.208Z,3.67
2022-11-04T20:49:40.283Z,2.30
2022-11-04T20:52:42.826Z,3.73
2022-11-04T20:55:45.412Z,3.00
2022-11-04T20:58:48.805Z,3.10
2022-11-04T21:01:52.877Z,2.87
2022-11-04T21:04:56.932Z,2.97
2022-11-04T21:07:59.556Z,3.43
2022-11-04T21:11:03.027Z,3.63
2022-11-04T21:14:06.649Z,4.20
2022-11-04T21:20:13.442Z,5.50
2022-11-04T21:23:17.397Z,3.03
2022-11-04T21:26:22.090Z,3.80
2022-11-04T21:29:25.242Z,3.43
2022-11-04T21:32:27.879Z,3.47
2022-11-04T21:35:32.498Z,3.93
2022-11-04T21:38:35.585Z,3.33
2022-11-04T21:41:38.547Z,3.50
2022-11-04T21:44:41.160Z,5.00
2022-11-04T21:47:43.829Z,4.33
2022-11-04T21:50:47.775Z,5.30
2022-11-04T21:53:50.732Z,4.40
2022-11-04T21:56:53.284Z,3.80
2022-11-04T21:59:56.090Z,4.87
2022-11-04T22:02:58.675Z,4.10
2022-11-04T22:06:04.372Z,4.07
2022-11-04T22:09:08.208Z,4.47
2022-11-04T22:12:10.795Z,4.20
2022-11-04T22:15:13.488Z,3.00
2022-11-04T22:18:16.501Z,2.93
2022-11-04T22:21:21.085Z,2.85
2022-11-04T22:24:23.750Z,2.70
2022-11-04T22:27:26.777Z,3.10
2022-11-04T22:30:29.440Z,2.65
2022-11-04T22:33:32.161Z,2.30
2022-11-04T22:36:36.228Z,2.28
2022-11-04T22:39:38.825Z,2.30
2022-11-04T22:42:43.686Z,2.10
2022-11-04T22:45:46.402Z,3.10
2022-11-04T22:48:49.546Z,2.30
2022-11-04T22:51:53.818Z,2.40
2022-11-04T22:54:56.440Z,2.37
2022-11-04T22:57:59.069Z,2.20
2022-11-04T23:01:04.469Z,2.63
2022-11-04T23:04:11.628Z,2.60
2022-11-04T23:07:15.819Z,2.53
2022-11-04T23:10:36.175Z,2.27
2022-11-04T23:13:56.703Z,2.43
2022-11-04T23:17:17.279Z,3.40
2022-11-04T23:20:22.185Z,2.60
2022-11-04T23:23:46.034Z,3.03
2022-11-04T23:26:48.969Z,3.00
2022-11-04T23:30:09.181Z,2.67
2022-11-04T23:33:14.301Z,2.90
2022-11-04T23:36:34.875Z,2.57
2022-11-04T23:39:38.815Z,3.07
2022-11-04T23:42:41.447Z,2.83
2022-11-04T23:46:01.860Z,2.60
2022-11-04T23:49:21.402Z,2.73
2022-11-04T23:52:40.923Z,2.80
2022-11-04T23:56:02.512Z,2.80
2022-11-04T23:59:23.877Z,2.50
